Time;durP1;ratioP1;P1;durP2;ratioP2;P2;SDS_P1;SDS_P2;PMS_P1;PMS_P2;Temp;Humidity;BMP_temperature;BMP_pressure;BME280_temperature;BME280_humidity;BME280_pressure;Samples;Min_cycle;Max_cycle;Signal;HPM_P1;HPM_P2
2021/12/12 00:01:32;;;;;;;33.03;21.08;;;;;;;;;;5047984;28;20410;-72
2021/12/12 00:04:10;;;;;;;31.77;19.10;;;;;;;;;;5045200;28;20503;-72
2021/12/12 00:06:37;;;;;;;36.33;21.33;;;;;;;;;;5050358;28;20051;-72
2021/12/12 00:09:15;;;;;;;37.05;20.65;;;;;;;;;;5081368;28;20053;-72
2021/12/12 00:11:41;;;;;;;30.33;19.95;;;;;;;;;;5029638;28;20062;-73
2021/12/12 00:14:13;;;;;;;37.15;20.95;;;;;;;;;;5079419;27;20045;-71
2021/12/12 00:16:40;;;;;;;41.00;22.33;;;;;;;;;;5050250;28;20155;-72
2021/12/12 00:19:06;;;;;;;28.30;20.23;;;;;;;;;;5046039;28;20041;-72
2021/12/12 00:21:34;;;;;;;28.40;20.55;;;;;;;;;;5040875;28;20037;-72
2021/12/12 00:24:01;;;;;;;33.80;21.63;;;;;;;;;;5046948;28;20049;-71
2021/12/12 00:26:27;;;;;;;32.83;21.55;;;;;;;;;;5044918;28;20044;-72
2021/12/12 00:28:54;;;;;;;36.17;21.92;;;;;;;;;;5047180;28;20048;-71
2021/12/12 00:31:21;;;;;;;41.72;22.10;;;;;;;;;;5042639;28;20041;-72
2021/12/12 00:33:50;;;;;;;37.22;22.48;;;;;;;;;;5048903;28;20040;-72
2021/12/12 00:36:17;;;;;;;32.75;20.25;;;;;;;;;;5046180;28;20095;-72
2021/12/12 00:38:45;;;;;;;42.92;21.80;;;;;;;;;;5046911;28;20037;-72
2021/12/12 00:41:12;;;;;;;36.63;21.88;;;;;;;;;;5039671;28;20526;-72
2021/12/12 00:43:44;;;;;;;29.73;20.17;;;;;;;;;;5080293;28;20149;-72
2021/12/12 00:46:11;;;;;;;36.15;21.55;;;;;;;;;;5045919;28;20064;-71
2021/12/12 00:48:39;;;;;;;32.63;21.23;;;;;;;;;;5046698;28;20123;-72
2021/12/12 00:51:06;;;;;;;34.88;21.35;;;;;;;;;;5045383;28;20045;-72
2021/12/12 00:53:32;;;;;;;34.30;20.75;;;;;;;;;;5045517;28;20037;-72
2021/12/12 00:55:59;;;;;;;37.85;21.38;;;;;;;;;;5048918;28;20496;-72
2021/12/12 00:58:26;;;;;;;37.17;22.77;;;;;;;;;;5048858;28;20503;-72
2021/12/12 01:00:54;;;;;;;41.05;22.90;;;;;;;;;;5046525;28;20384;-72
2021/12/12 01:03:26;;;;;;;36.10;23.15;;;;;;;;;;5049050;28;20052;-72
2021/12/12 01:05:53;;;;;;;39.05;22.02;;;;;;;;;;5079692;27;20056;-72
2021/12/12 01:08:19;;;;;;;41.83;21.80;;;;;;;;;;5085065;28;20045;-71
2021/12/12 01:10:54;;;;;;;35.70;23.50;;;;;;;;;;5051050;28;20040;-72
2021/12/12 01:13:22;;;;;;;32.25;21.13;;;;;;;;;;5042982;28;20139;-72
2021/12/12 01:15:57;;;;;;;38.15;22.85;;;;;;;;;;5045831;28;20076;-72
2021/12/12 01:18:30;;;;;;;33.08;20.10;;;;;;;;;;5051612;28;20170;-72
2021/12/12 01:21:11;;;;;;;31.55;19.58;;;;;;;;;;5046554;28;20033;-72
2021/12/12 01:23:40;;;;;;;38.33;23.95;;;;;;;;;;5045062;28;20057;-72
2021/12/12 01:26:07;;;;;;;36.00;23.92;;;;;;;;;;5077131;28;20044;-72
2021/12/12 01:28:35;;;;;;;39.60;24.10;;;;;;;;;;5059478;28;20048;-73
2021/12/12 01:31:05;;;;;;;37.10;23.05;;;;;;;;;;5048711;28;20373;-72
2021/12/12 01:33:35;;;;;;;32.80;23.90;;;;;;;;;;5047242;28;20242;-72
2021/12/12 01:36:11;;;;;;;37.40;23.52;;;;;;;;;;5047286;28;20083;-72
2021/12/12 01:38:56;;;;;;;40.05;25.63;;;;;;;;;;5046743;28;20033;-72
2021/12/12 01:41:26;;;;;;;45.40;24.35;;;;;;;;;;5055930;28;20219;-72
2021/12/12 01:43:54;;;;;;;35.20;23.98;;;;;;;;;;5045411;28;20088;-72
2021/12/12 01:46:25;;;;;;;36.28;22.23;;;;;;;;;;5056224;28;20041;-72
2021/12/12 01:49:08;;;;;;;41.80;25.27;;;;;;;;;;5046005;28;20452;-72
2021/12/12 01:51:35;;;;;;;34.70;21.88;;;;;;;;;;5044648;28;20087;-72
2021/12/12 01:54:03;;;;;;;38.00;22.98;;;;;;;;;;5046824;28;20044;-72
2021/12/12 01:56:31;;;;;;;44.25;23.02;;;;;;;;;;5043344;28;20569;-72
2021/12/12 01:59:01;;;;;;;42.33;24.65;;;;;;;;;;5047940;28;20036;-72
2021/12/12 02:01:30;;;;;;;38.42;23.60;;;;;;;;;;5046872;28;20281;-72
2021/12/12 02:04:01;;;;;;;30.35;20.95;;;;;;;;;;5046000;28;20055;-72
2021/12/12 02:06:28;;;;;;;35.65;22.67;;;;;;;;;;5045123;28;20946;-73
2021/12/12 02:08:55;;;;;;;31.95;21.42;;;;;;;;;;5044371;28;20071;-72
2021/12/12 02:11:23;;;;;;;34.47;23.08;;;;;;;;;;5045817;28;20490;-72
2021/12/12 02:13:52;;;;;;;48.40;25.42;;;;;;;;;;5048431;28;20044;-72
2021/12/12 02:16:18;;;;;;;38.65;21.45;;;;;;;;;;5047013;28;20482;-73
2021/12/12 02:18:48;;;;;;;32.00;21.33;;;;;;;;;;5078250;28;20037;-73
2021/12/12 02:21:25;;;;;;;38.58;23.20;;;;;;;;;;5044962;28;20123;-72
2021/12/12 02:37:35;;;;;;;37.00;22.67;;;;;;;;;;5046965;28;20110;-72
2021/12/12 02:40:04;;;;;;;37.70;22.77;;;;;;;;;;5047339;28;20132;-72
2021/12/12 02:42:31;;;;;;;31.92;21.92;;;;;;;;;;5045183;28;20043;-72
2021/12/12 02:45:00;;;;;;;38.85;22.80;;;;;;;;;;5048703;28;20455;-73
2021/12/12 02:47:34;;;;;;;38.33;21.88;;;;;;;;;;5048223;28;20084;-72
2021/12/12 02:50:13;;;;;;;32.13;20.42;;;;;;;;;;5051926;28;20123;-72
2021/12/12 02:52:44;;;;;;;34.80;22.60;;;;;;;;;;5049747;28;20074;-72
2021/12/12 02:55:24;;;;;;;44.90;22.35;;;10.10;94.40;;;;;;5049844;28;20681;-72
2021/12/12 02:57:52;;;;;;;42.42;22.08;;;;;;;;;;5052430;28;20351;-73
2021/12/12 03:00:19;;;;;;;34.33;22.45;;;;;;;;;;5047310;28;20040;-72
2021/12/12 03:02:48;;;;;;;36.30;22.67;;;;;;;;;;5048273;28;20533;-72
2021/12/12 03:05:16;;;;;;;31.88;22.88;;;;;;;;;;5047426;28;20075;-72
2021/12/12 03:07:44;;;;;;;33.15;19.85;;;;;;;;;;5052769;28;20111;-72
2021/12/12 03:10:13;;;;;;;31.55;21.05;;;;;;;;;;5049844;28;20045;-73
2021/12/12 03:12:41;;;;;;;33.38;21.73;;;;;;;;;;5079334;27;20051;-71
2021/12/12 03:15:14;;;;;;;33.45;19.73;;;;;;;;;;5050356;28;20044;-71
2021/12/12 03:17:42;;;;;;;33.72;21.13;;;;;;;;;;5047752;28;20408;-71
2021/12/12 03:20:23;;;;;;;37.40;22.75;;;;;;;;;;5051267;28;20802;-72
2021/12/12 03:22:55;;;;;;;30.25;19.33;;;;;;;;;;5051444;28;20076;-72
2021/12/12 03:25:22;;;;;;;40.90;21.85;;;;;;;;;;5047009;28;20052;-72
2021/12/12 03:27:48;;;;;;;29.60;19.73;;;;;;;;;;5049253;28;20044;-72
2021/12/12 03:30:15;;;;;;;33.88;18.60;;;;;;;;;;5049448;28;20206;-71
2021/12/12 03:32:42;;;;;;;30.88;20.23;;;;;;;;;;5050121;28;20095;-72
2021/12/12 03:35:08;;;;;;;32.20;17.42;;;;;;;;;;5047923;28;20507;-72
2021/12/12 03:37:34;;;;;;;27.88;17.65;;;;;;;;;;5059741;28;20037;-72
2021/12/12 03:40:04;;;;;;;31.45;17.80;;;;;;;;;;5081041;28;20056;-72
2021/12/12 03:42:31;;;;;;;30.40;18.50;;;;;;;;;;5049073;28;20120;-71
2021/12/12 03:44:58;;;;;;;27.98;17.65;;;;;;;;;;5048326;28;20493;-72
2021/12/12 03:47:28;;;;;;;24.75;17.23;;;;;;;;;;5081673;28;20279;-72
2021/12/12 03:49:54;;;;;;;22.60;17.15;;;;;;;;;;5083476;28;20052;-72
2021/12/12 03:52:21;;;;;;;24.98;17.92;;;;;;;;;;5046183;28;20045;-72
2021/12/12 03:54:48;;;;;;;26.48;17.83;;;;;;;;;;5049495;28;20116;-71
2021/12/12 03:57:16;;;;;;;25.33;17.50;;;;;;;;;;5049216;28;20045;-71
2021/12/12 03:59:43;;;;;;;26.88;16.63;;;;;;;;;;5063113;28;20044;-72
2021/12/12 04:02:09;;;;;;;23.75;16.83;;;;;;;;;;5048275;28;20044;-71
2021/12/12 04:04:37;;;;;;;21.83;16.25;;;;;;;;;;5046745;28;20041;-71
2021/12/12 04:07:06;;;;;;;20.60;15.93;;;;;;;;;;5046861;28;20072;-72
2021/12/12 04:09:32;;;;;;;22.98;16.00;;;;;;;;;;5081139;28;20738;-72
2021/12/12 04:12:00;;;;;;;21.73;15.27;;;;;;;;;;5045135;28;20045;-72
2021/12/12 04:14:27;;;;;;;26.23;16.73;;;;;;;;;;5083570;28;20131;-72
2021/12/12 04:16:55;;;;;;;25.95;16.30;;;;;;;;;;5047616;28;20087;-71
2021/12/12 04:19:22;;;;;;;21.73;14.65;;;;;;;;;;5053208;28;20036;-71
2021/12/12 04:21:48;;;;;;;21.40;16.73;;;;;;;;;;5046756;28;20490;-71
2021/12/12 04:24:26;;;;;;;19.63;14.27;;;;;;;;;;5046081;28;20057;-72
2021/12/12 04:26:52;;;;;;;20.20;15.48;;;;;;;;;;5049193;28;20128;-71
2021/12/12 04:29:21;;;;;;;19.67;14.63;;;;;;;;;;5047780;28;20250;-71
2021/12/12 04:31:49;;;;;;;21.08;14.38;;;;;;;;;;5049012;28;20139;-70
2021/12/12 04:34:16;;;;;;;18.15;13.93;;;;;;;;;;5050388;28;20067;-70
2021/12/12 04:36:44;;;;;;;23.15;15.98;;;;;;;;;;5044377;28;20641;-71
2021/12/12 04:39:10;;;;;;;22.38;13.90;;;;;;;;;;5083417;27;20033;-70
2021/12/12 04:41:37;;;;;;;18.52;14.60;;;;;;;;;;5057883;28;20041;-71
2021/12/12 04:44:04;;;;;;;17.95;14.18;;;;;;;;;;5050177;28;20505;-71
2021/12/12 04:49:54;;;;;;;19.17;15.98;;;;;;;;;;5041611;28;20548;-71
2021/12/12 04:52:06;;;;;;;17.00;12.90;;;;;;;;;;5045745;28;20037;-71
2021/12/12 04:54:48;;;;;;;20.90;13.55;;;;;;;;;;5049709;28;20125;-71
2021/12/12 04:57:20;;;;;;;20.65;14.82;;;;;;;;;;5046523;28;20037;-70
2021/12/12 04:59:48;;;;;;;16.48;13.82;;;;;;;;;;5049148;28;20471;-70
2021/12/12 05:02:18;;;;;;;18.25;13.30;;;;;;;;;;5046626;28;20040;-71
2021/12/12 05:04:53;;;;;;;18.00;13.75;;;;;;;;;;5046205;28;20041;-70
2021/12/12 05:07:21;;;;;;;17.92;13.98;;;;;;;;;;5047716;28;20033;-70
2021/12/12 05:09:52;;;;;;;18.08;12.57;;;;;;;;;;5046362;28;20059;-71
2021/12/12 05:12:18;;;;;;;21.83;14.95;;;;;;;;;;5046130;28;20426;-71
2021/12/12 05:14:49;;;;;;;17.70;13.80;;;;;;;;;;5046736;28;20047;-70
2021/12/12 05:17:21;;;;;;;23.67;15.00;;;;;;;;;;5085661;28;20490;-70
2021/12/12 05:19:50;;;;;;;22.77;15.18;;;;;;;;;;5048939;28;20079;-71
2021/12/12 05:22:19;;;;;;;22.48;15.80;;;;;;;;;;5046428;28;20486;-71
2021/12/12 05:24:47;;;;;;;20.00;15.30;;;;;;;;;;5029024;28;20131;-71
2021/12/12 05:27:15;;;;;;;20.30;15.35;;;;;;;;;;5078201;28;20092;-71
2021/12/12 05:29:44;;;;;;;23.55;15.95;;;;;;;;;;5042218;28;20074;-71
2021/12/12 05:32:12;;;;;;;22.15;16.80;;;;;;;;;;5045048;28;20056;-71
2021/12/12 05:34:39;;;;;;;26.98;18.30;;;;;;;;;;5046494;28;20044;-71
2021/12/12 05:37:06;;;;;;;22.77;16.90;;;;;;;;;;5046729;28;20503;-70
2021/12/12 05:39:33;;;;;;;23.92;16.63;;;;;;;;;;5047502;28;20037;-71
2021/12/12 05:42:00;;;;;;;22.15;17.17;;;;;;;;;;5008663;28;20041;-71
2021/12/12 05:44:28;;;;;;;26.00;17.63;;;;;;;;;;5047587;28;20380;-71
2021/12/12 05:46:55;;;;;;;23.67;17.10;;;;;;;;;;5048012;28;20039;-71
2021/12/12 05:49:21;;;;;;;22.90;17.40;;;;;;;;;;5045227;28;20489;-70
2021/12/12 05:51:48;;;;;;;23.20;16.38;;;;;;;;;;5057470;28;20036;-72
2021/12/12 05:54:14;;;;;;;24.35;16.88;;;;;;;;;;5047964;28;20045;-71
2021/12/12 05:56:40;;;;;;;23.83;17.23;;;;;;;;;;5045970;28;20329;-71
2021/12/12 05:59:08;;;;;;;22.75;17.15;;;;;;;;;;5048097;28;20044;-71
2021/12/12 06:01:34;;;;;;;21.90;16.48;;;;;;;;;;5047459;28;20072;-70
2021/12/12 06:04:00;;;;;;;22.70;16.63;;;;;;;;;;5046012;28;20041;-71
2021/12/12 06:06:28;;;;;;;22.15;17.70;;;;;;;;;;5058263;28;20036;-71
2021/12/12 06:08:57;;;;;;;22.85;17.58;;;;;;;;;;5047103;28;20049;-70
2021/12/12 06:11:25;;;;;;;26.75;18.13;;;;;;;;;;5055537;28;20047;-71
2021/12/12 06:13:52;;;;;;;28.38;19.90;;;;;;;;;;5058145;28;20449;-71
2021/12/12 06:16:19;;;;;;;25.63;18.73;;;;;;;;;;5049572;28;20041;-70
2021/12/12 06:18:48;;;;;;;24.65;19.48;;;;;;;;;;5080376;27;20604;-71
2021/12/12 06:21:14;;;;;;;29.00;19.20;;;;;;;;;;5061872;28;20044;-71
2021/12/12 06:23:41;;;;;;;26.10;19.40;;;;;;;;;;5050519;28;20056;-70
2021/12/12 06:26:07;;;;;;;32.80;20.88;;;;;;;;;;5049132;28;20497;-70
2021/12/12 06:28:35;;;;;;;26.63;19.75;;;;;;;;;;5048612;28;20048;-70
2021/12/12 06:31:02;;;;;;;27.27;20.17;;;;;;;;;;5052563;28;20402;-71
2021/12/12 06:33:29;;;;;;;28.17;19.48;;;;;;;;;;5051059;28;20513;-71
2021/12/12 06:35:55;;;;;;;27.77;19.52;;;;;;;;;;5054247;28;20048;-70
2021/12/12 06:38:21;;;;;;;23.10;17.23;;;;;;;;;;5051310;28;20048;-71
2021/12/12 06:40:48;;;;;;;24.60;17.77;;;;;;;;;;5066768;28;20453;-70
2021/12/12 06:43:16;;;;;;;30.10;20.75;;;;;;;;;;5041925;28;20044;-71
2021/12/12 06:45:42;;;;;;;28.95;18.70;;;;;;;;;;5077850;28;20123;-71
2021/12/12 06:48:09;;;;;;;32.80;21.67;;;;;;;;;;5050710;28;20098;-71
2021/12/12 06:50:37;;;;;;;29.67;21.45;;;;;;;;;;5051768;28;20127;-70
2021/12/12 06:53:03;;;;;;;24.80;18.70;;;;;;;;;;5052996;28;20056;-71
2021/12/12 06:55:30;;;;;;;28.95;20.50;;;;;;;;;;5085998;28;20036;-71
2021/12/12 06:57:56;;;;;;;31.58;21.40;;;;;;;;;;5050832;28;20056;-70
2021/12/12 07:00:23;;;;;;;27.98;20.08;;;;;;;;;;5051075;28;20543;-70
2021/12/12 07:02:50;;;;;;;31.38;21.67;;;;;;;;;;5053249;28;20049;-70
2021/12/12 07:05:18;;;;;;;32.70;22.17;;;;;;;;;;5050069;28;20045;-71
2021/12/12 07:07:45;;;;;;;33.20;22.63;;;;;;;;;;5051554;28;20072;-71
2021/12/12 07:10:13;;;;;;;35.40;22.80;;;;;;;;;;5050861;28;20044;-71
2021/12/12 07:12:40;;;;;;;31.75;22.67;;;;;;;;;;5047824;28;20044;-71
2021/12/12 07:15:08;;;;;;;35.40;23.55;;;;;;;;;;5047227;28;20569;-71
2021/12/12 07:17:35;;;;;;;33.33;22.77;;;;;;;;;;5047437;28;20056;-71
2021/12/12 07:20:02;;;;;;;38.53;23.77;;;;;;;;;;5050494;28;20040;-70
2021/12/12 07:22:28;;;;;;;36.80;24.85;;;;;;;;;;5047796;28;20045;-70
2021/12/12 07:24:54;;;;;;;41.28;27.38;;;;;;;;;;5049848;28;20132;-70
2021/12/12 07:27:20;;;;;;;40.95;27.40;;;;;;;;;;5049340;28;20036;-70
2021/12/12 07:29:47;;;;;;;33.92;23.25;;;;;;;;;;5046087;28;20041;-71
2021/12/12 07:32:14;;;;;;;33.90;23.60;;;;;;;;;;5048076;28;20083;-72
2021/12/12 07:34:40;;;;;;;33.90;24.02;;;;;;;;;;5045677;28;20102;-70
2021/12/12 07:37:08;;;;;;;34.67;25.38;;;;;;;;;;5046261;28;20218;-71
2021/12/12 07:39:35;;;;;;;38.45;27.98;;;;;;;;;;5049242;28;20040;-71
2021/12/12 07:42:02;;;;;;;50.47;30.20;;;;;;;;;;5047983;28;20067;-72
2021/12/12 07:44:31;;;;;;;39.75;26.30;;;;;;;;;;5085009;27;20048;-71
2021/12/12 07:46:58;;;;;;;42.53;25.83;;;;;;;;;;5061538;28;20075;-71
2021/12/12 07:49:38;;;;;;;53.00;30.33;;;;;;;;;;5050303;28;20040;-71
2021/12/12 07:52:06;;;;;;;53.08;29.25;;;;;;;;;;5047934;28;20259;-71
2021/12/12 07:54:33;;;;;;;49.60;28.67;;;;;;;;;;5050779;28;20090;-71
2021/12/12 07:57:00;;;;;;;48.90;27.83;;;;;;;;;;5082810;27;20585;-71
2021/12/12 07:59:26;;;;;;;43.72;28.17;;;;;;;;;;5048819;28;20412;-71
2021/12/12 08:01:53;;;;;;;56.53;30.25;;;;;;;;;;5051915;28;20090;-71
2021/12/12 08:04:21;;;;;;;49.28;32.13;;;;;;;;;;5049413;28;20565;-71
2021/12/12 08:06:48;;;;;;;49.80;28.05;;;;;;;;;;5046352;28;20045;-70
2021/12/12 08:09:14;;;;;;;53.22;31.27;;;;;;;;;;5031222;28;20506;-71
2021/12/12 08:11:43;;;;;;;46.15;30.48;;;;;;;;;;5051481;28;20075;-71
2021/12/12 08:14:11;;;;;;;51.55;32.15;;;;;;;;;;5051634;28;20110;-71
2021/12/12 08:16:37;;;;;;;48.85;29.20;;;;;;;;;;5050696;28;20596;-71
2021/12/12 08:19:04;;;;;;;54.75;31.27;;;;;;;;;;5053028;28;20041;-70
2021/12/12 08:21:33;;;;;;;48.97;28.63;;;;;;;;;;5049952;28;20118;-70
2021/12/12 08:24:05;;;;;;;51.17;27.73;;;;;;;;;;5049944;28;20592;-71
2021/12/12 08:26:33;;;;;;;54.45;31.33;;;;;;;;;;5044079;28;20406;-70
2021/12/12 08:28:59;;;;;;;59.05;32.88;;;;;;;;;;5047235;28;20461;-71
2021/12/12 08:31:26;;;;;;;61.13;32.80;;;;;;;;;;5047617;28;20482;-70
2021/12/12 08:33:52;;;;;;;48.90;30.05;;;;;;;;;;5046308;28;20073;-71
2021/12/12 08:36:19;;;;;;;60.00;36.22;;;;;;;;;;5049539;28;20409;-70
2021/12/12 08:38:45;;;;;;;60.20;37.83;;;;;;;;;;5085682;28;20048;-71
2021/12/12 08:41:11;;;;;;;78.20;38.15;;;;;;;;;;5049528;28;20034;-71
2021/12/12 08:43:39;;;;;;;61.35;35.00;;;;;;;;;;5052655;28;20076;-71
2021/12/12 08:46:08;;;;;;;63.22;33.22;;;;;;;;;;5046041;28;20402;-71
2021/12/12 08:48:35;;;;;;;61.70;34.85;;;;;;;;;;5046909;28;20033;-71
2021/12/12 08:51:04;;;;;;;67.70;38.40;;;;;;;;;;5048818;28;20041;-70
2021/12/12 08:53:31;;;;;;;60.35;33.65;;;;;;;;;;5050325;28;20056;-70
2021/12/12 08:55:58;;;;;;;77.22;41.35;;;;;;;;;;5047136;28;20102;-71
2021/12/12 08:58:27;;;;;;;78.90;46.47;;;;;;;;;;5047350;28;20079;-71
2021/12/12 09:01:01;;;;;;;68.47;41.30;;;;;;;;;;5057970;28;20033;-71
2021/12/12 09:03:27;;;;;;;69.35;37.95;;;;;;;;;;5045875;28;20044;-71
2021/12/12 09:05:54;;;;;;;69.30;39.10;;;;;;;;;;5046323;28;20051;-71
2021/12/12 09:08:36;;;;;;;89.60;47.47;;;;;;;;;;5047563;28;20136;-70
2021/12/12 09:11:08;;;;;;;77.78;41.80;;;;;;;;;;5049674;28;20554;-71
2021/12/12 09:13:38;;;;;;;82.65;42.35;;;;;;;;;;5047294;28;20039;-71
2021/12/12 09:16:05;;;;;;;65.30;36.20;;;;;;;;;;5054036;28;20099;-70
2021/12/12 09:18:37;;;;;;;75.43;41.33;;;;;;;;;;5052126;28;20490;-70
2021/12/12 09:21:07;;;;;;;86.30;46.03;;;;;;;;;;5050888;28;20508;-71
2021/12/12 09:23:35;;;;;;;86.07;45.33;;;;;;;;;;5047844;28;20485;-71
2021/12/12 09:26:07;;;;;;;88.50;46.15;;;;;;;;;;5046091;28;20044;-70
2021/12/12 09:28:33;;;;;;;77.47;44.03;;;;;;;;;;5046650;28;20045;-71
2021/12/12 09:31:08;;;;;;;66.32;39.20;;;;;;;;;;5078124;28;20368;-71
2021/12/12 09:33:39;;;;;;;73.90;37.42;;;;;;;;;;5049177;28;20036;-71
2021/12/12 09:36:10;;;;;;;60.05;35.42;;;;;;;;;;5056383;28;20083;-71
2021/12/12 09:38:42;;;;;;;84.13;46.90;;;;;;;;;;5067738;28;20094;-71
2021/12/12 09:41:18;;;;;;;91.47;48.40;;;;;;;;;;5047439;28;20110;-71
2021/12/12 09:44:02;;;;;;;87.22;44.75;;;;;;;;;;5045425;28;20087;-71
2021/12/12 09:46:56;;;;;;;85.10;46.55;;;;;;;;;;5047102;28;20508;-71
2021/12/12 09:52:27;;;;;;;76.20;38.00;;;;;;;;;;5080409;28;20105;-71
2021/12/12 09:55:02;;;;;;;107.97;50.63;;;;;;;;;;5053886;28;20449;-71
2021/12/12 09:57:37;;;;;;;96.93;46.97;;;;;;;;;;5085668;27;20044;-71
2021/12/12 10:00:10;;;;;;;103.07;50.90;;;;;;;;;;5063098;28;21218;-71
2021/12/12 10:02:39;;;;;;;107.80;54.90;;;;;;;;;;5078949;28;20045;-71
2021/12/12 10:05:41;;;;;;;104.18;50.92;;;;;;;;;;5065175;28;20112;-71
2021/12/12 10:08:09;;;;;;;77.70;40.60;;;;;;;;;;5030931;28;20057;-72
2021/12/12 10:10:44;;;;;;;71.00;39.10;;;;;;;;;;5042388;28;20084;-71
2021/12/12 10:13:18;;;;;;;88.63;46.50;;;;;;;;;;5051209;28;20489;-71
2021/12/12 10:15:48;;;;;;;122.80;55.55;;;;;;;;;;5048793;28;20040;-71
2021/12/12 10:18:22;;;;;;;124.90;57.97;;;;;;;;;;5083853;28;20045;-71
2021/12/12 10:20:52;;;;;;;107.32;50.40;;;;;;;;;;5050839;28;20604;-71
2021/12/12 10:23:24;;;;;;;74.30;39.53;;;;;;;;;;5061524;28;20663;-71
2021/12/12 10:26:10;;;;;;;77.28;43.33;;;;;;;;;;5060666;28;20044;-71
2021/12/12 10:28:36;;;;;;;82.05;42.55;;;;;;;;;;5052437;28;20120;-71
2021/12/12 10:31:06;;;;;;;111.38;55.15;;;;;;;;;;5063666;28;20601;-71
2021/12/12 10:33:39;;;;;;;78.15;41.50;;;;;;;;;;5052056;28;20524;-71
2021/12/12 10:36:12;;;;;;;108.85;54.17;;;;;;;;;;5051920;28;20069;-71
2021/12/12 10:38:38;;;;;;;91.53;46.90;;;;;;;;;;5083440;28;20048;-71
2021/12/12 10:41:07;;;;;;;92.13;45.45;;;;;;;;;;5048682;28;20053;-71
2021/12/12 10:43:36;;;;;;;93.32;49.40;;;;;;;;;;5053942;28;20530;-71
2021/12/12 10:46:16;;;;;;;90.35;46.38;;;;;;;;;;5050751;28;20486;-71
2021/12/12 10:48:54;;;;;;;78.65;42.25;;;;;;;;;;5083549;27;20102;-71
2021/12/12 10:51:22;;;;;;;70.25;37.47;;;;;;;;;;5051907;28;20157;-71
2021/12/12 10:53:50;;;;;;;73.43;38.80;;;;;;;;;;5084436;27;20106;-71
2021/12/12 10:56:34;;;;;;;101.57;48.20;;;;;;;;;;5048230;28;20035;-72
2021/12/12 10:59:14;;;;;;;69.78;36.97;;;5.10;99.90;;;;;;5060582;28;20057;-71
2021/12/12 11:01:44;;;;;;;77.25;43.35;;;7.30;99.90;;;;;;5050190;28;20429;-71
2021/12/12 11:04:13;;;;;;;57.30;32.85;;;7.30;99.90;;;;;;5061570;28;20063;-71
2021/12/12 11:06:43;;;;;;;88.80;42.83;;;7.30;99.90;;;;;;5075891;28;20051;-71
2021/12/12 11:09:34;;;;;;;50.88;31.83;;;7.30;99.90;;;;;;5050853;28;20548;-72
2021/12/12 11:12:13;;;;;;;60.83;34.28;;;7.30;99.90;;;;;;5047562;28;20044;-72
2021/12/12 11:14:54;;;;;;;62.58;33.40;;;7.40;99.90;;;;;;5049804;28;20766;-71
2021/12/12 11:17:27;;;;;;;67.57;39.63;;;7.40;99.90;;;;;;5046698;28;20342;-71
2021/12/12 11:20:19;;;;;;;56.55;34.47;;;7.40;99.90;;;;;;5048032;28;20588;-71
2021/12/12 11:22:57;;;;;;;78.22;40.78;;;;;;;;;;5048058;28;20044;-72
2021/12/12 11:25:23;;;;;;;49.40;31.58;;;;;;;;;;5049880;28;20245;-71
2021/12/12 11:27:52;;;;;;;63.13;36.30;;;;;;;;;;5050802;28;20044;-72
2021/12/12 11:30:22;;;;;;;68.68;36.70;;;;;;;;;;5048594;28;20487;-72
2021/12/12 11:32:49;;;;;;;44.42;27.30;;;;;;;;;;5051625;28;20119;-72
2021/12/12 11:35:18;;;;;;;64.60;36.25;;;;;;;;;;5046260;28;20537;-71
2021/12/12 11:37:57;;;;;;;51.97;28.73;;;;;;;;;;5054759;28;20045;-72
2021/12/12 11:40:26;;;;;;;40.67;25.98;;;;;;;;;;5060152;28;20040;-72
2021/12/12 11:42:52;;;;;;;51.17;29.58;;;;;;;;;;5049296;28;20727;-72
2021/12/12 11:45:18;;;;;;;47.88;29.80;;;;;;;;;;5048871;28;20395;-71
2021/12/12 11:48:00;;;;;;;32.65;22.63;;;;;;;;;;5082120;28;20060;-71
2021/12/12 11:50:30;;;;;;;36.08;21.52;;;;;;;;;;5059867;28;20591;-71
2021/12/12 11:53:04;;;;;;;49.20;27.67;;;;;;;;;;5048586;28;20052;-72
2021/12/12 11:55:38;;;;;;;37.05;23.90;;;;;;;;;;5065622;28;20064;-71
2021/12/12 11:58:10;;;;;;;36.55;23.75;;;;;;;;;;5083968;28;20052;-71
2021/12/12 12:00:42;;;;;;;38.60;23.17;;;;;;;;;;5046360;28;20055;-72
2021/12/12 12:03:14;;;;;;;44.47;26.65;;;;;;;;;;5051762;28;20062;-71
2021/12/12 12:05:59;;;;;;;47.85;24.90;;;;;;;;;;5053452;28;20529;-71
2021/12/12 12:08:43;;;;;;;34.17;22.83;;;;;;;;;;5048621;28;20049;-71
2021/12/12 12:11:25;;;;;;;58.65;34.97;;;;;;;;;;5047216;28;20057;-71
2021/12/12 12:14:03;;;;;;;42.30;25.33;;;;;;;;;;5047722;28;20059;-71
2021/12/12 12:16:32;;;;;;;58.00;32.95;;;;;;;;;;5048571;28;20063;-71
2021/12/12 12:19:01;;;;;;;43.15;26.58;;;;;;;;;;5048133;28;20053;-71
2021/12/12 12:21:34;;;;;;;39.58;26.17;;;;;;;;;;5048141;28;20541;-71
2021/12/12 12:26:51;;;;;;;41.75;25.58;;;;;;;;;;5050823;28;20053;-71
2021/12/12 12:29:33;;;;;;;61.85;34.92;;;;;;;;;;5047476;28;20044;-72
2021/12/12 12:32:05;;;;;;;43.38;26.10;;;;;;;;;;5044919;28;20048;-72
2021/12/12 12:34:47;;;;;;;35.17;22.63;;;;;;;;;;5045672;28;20044;-71
2021/12/12 12:37:33;;;;;;;35.38;22.42;;;;;;;;;;5046657;28;20128;-71
2021/12/12 12:40:17;;;;;;;70.38;36.10;;;7.40;99.90;;;;;;5034524;28;20060;-71
2021/12/12 12:43:05;;;;;;;50.05;31.95;;;7.90;99.90;;;;;;5046466;28;20075;-71
2021/12/12 12:46:08;;;;;;;61.60;33.67;;;7.90;99.90;;;;;;5049026;28;20048;-71
2021/12/12 12:49:18;;;;;;;43.08;25.52;;;8.00;99.90;;;;;;5047532;28;20041;-71
2021/12/12 12:52:10;;;;;;;73.70;33.83;;;8.00;99.90;;;;;;5043353;28;20101;-71
2021/12/12 12:55:02;;;;;;;40.08;25.42;;;8.00;99.90;;;;;;5043488;28;20485;-71
2021/12/12 12:57:40;;;;;;;97.10;42.30;;;8.00;99.90;;;;;;5051624;28;20045;-71
2021/12/12 13:00:19;;;;;;;94.22;40.08;;;8.00;99.90;;;;;;5058101;28;20568;-71
2021/12/12 13:03:14;;;;;;;40.45;25.40;;;8.00;99.90;;;;;;5048659;28;20143;-72
2021/12/12 13:05:58;;;;;;;71.30;37.10;;;8.00;99.90;;;;;;5050543;28;20108;-71
2021/12/12 13:08:49;;;;;;;82.25;41.42;;;8.00;99.90;;;;;;5059084;28;20058;-71
2021/12/12 13:11:39;;;;;;;66.30;33.30;;;8.10;99.90;;;;;;5044777;28;20502;-71
2021/12/12 13:14:52;;;;;;;57.95;30.88;;;8.10;99.90;;;;;;5084476;28;20061;-71
2021/12/12 13:17:22;;;;;;;38.65;22.55;;;8.10;99.90;;;;;;5082075;28;21237;-72
2021/12/12 13:20:26;;;;;;;33.05;21.83;;;8.20;99.90;;;;;;5048062;28;20538;-72
2021/12/12 13:22:55;;;;;;;;;;;8.20;99.90;;;;;;5045859;28;20469;-72
2021/12/12 13:25:31;;;;;;;32.33;19.70;;;8.20;99.90;;;;;;5051522;28;19994;-72
2021/12/12 13:28:34;;;;;;;24.98;16.40;;;8.20;99.90;;;;;;5047682;28;20044;-72
2021/12/12 13:31:16;;;;;;;28.65;17.92;;;8.20;99.90;;;;;;5049469;28;20494;-72
2021/12/12 13:34:10;;;;;;;25.48;17.80;;;8.30;99.90;;;;;;5046315;28;20124;-71
2021/12/12 13:37:09;;;;;;;32.22;17.77;;;8.30;99.90;;;;;;5051957;28;20036;-72
2021/12/12 13:40:12;;;;;;;23.05;14.73;;;8.30;99.90;;;;;;5047273;28;20135;-72
2021/12/12 13:42:56;;;;;;;23.10;14.27;;;8.30;99.90;;;;;;5046564;28;20524;-72
2021/12/12 13:45:29;;;;;;;19.20;12.52;;;;;;;;;;5050743;28;20098;-71
2021/12/12 13:48:14;;;;;;;22.60;11.82;;;;;;;;;;5060903;28;20442;-71
2021/12/12 13:50:55;;;;;;;17.95;10.00;;;8.40;99.90;;;;;;5047010;28;20047;-71
2021/12/12 13:53:43;;;;;;;16.67;10.20;;;8.60;99.90;;;;;;5052355;28;20063;-72
2021/12/12 13:56:18;;;;;;;20.25;10.13;;;8.60;99.90;;;;;;5049061;28;20049;-72
2021/12/12 13:59:10;;;;;;;23.90;12.52;;;8.70;99.90;;;;;;5062739;28;20052;-72
2021/12/12 14:01:48;;;;;;;18.60;10.50;;;8.70;99.90;;;;;;5045017;28;20145;-72
2021/12/12 14:04:37;;;;;;;23.77;12.02;;;;;;;;;;5048419;28;20045;-71
2021/12/12 14:07:05;;;;;;;18.10;9.80;;;;;;;;;;5052815;28;20064;-72
2021/12/12 14:09:31;;;;;;;26.85;11.88;;;;;;;;;;5057979;28;20055;-71
2021/12/12 14:11:59;;;;;;;20.38;12.43;;;;;;;;;;5046342;28;20103;-72
2021/12/12 14:14:44;;;;;;;22.02;12.20;;;;;;;;;;5057321;28;20044;-72
2021/12/12 14:17:28;;;;;;;22.40;13.30;;;;;;;;;;5059058;28;20060;-72
2021/12/12 14:20:00;;;;;;;25.17;13.63;;;;;;;;;;5050178;28;20402;-72
2021/12/12 14:22:27;;;;;;;21.38;13.05;;;;;;;;;;5049547;28;20045;-72
2021/12/12 14:24:56;;;;;;;21.45;12.52;;;;;;;;;;5050059;28;20056;-72
2021/12/12 14:27:23;;;;;;;23.33;13.73;;;;;;;;;;5049351;28;20079;-71
2021/12/12 14:29:50;;;;;;;22.67;13.00;;;;;;;;;;5049395;28;20556;-71
2021/12/12 14:32:21;;;;;;;23.35;13.80;;;;;;;;;;5079062;28;20591;-72
2021/12/12 14:34:53;;;;;;;24.25;14.07;;;;;;;;;;5051259;28;20079;-71
2021/12/12 14:37:25;;;;;;;20.88;12.55;;;;;;;;;;5048752;28;20517;-71
2021/12/12 14:39:52;;;;;;;23.65;12.95;;;;;;;;;;5083317;28;20053;-71
2021/12/12 14:42:26;;;;;;;24.80;13.10;;;;;;;;;;5057548;28;20152;-71
2021/12/12 14:45:12;;;;;;;20.13;11.32;;;;;;;;;;5049957;28;20048;-71
2021/12/12 14:47:41;;;;;;;24.70;15.65;;;;;;;;;;5046425;28;20293;-71
2021/12/12 14:50:10;;;;;;;23.30;13.82;;;;;;;;;;5050724;28;20045;-71
2021/12/12 14:52:38;;;;;;;17.20;10.50;;;;;;;;;;5051443;28;20041;-71